Airfield :
LOGIN :

Register | Disclaimer

   EN    FR    IT 

 










Legend :    VFR   Marginal VFR   IFR   Intensive IFR   Very Intensive IFR
Visi :
Ceiling :
>= 8 km
>= 3000ft
5 to 8 km
1000 to 3000 ft
1500m to 5 km
500 to 1000 ft
800 to 1500m
200 to 500 ft
< 800m
< 200 ft
Symbols :   Thunderstorms  Fog  Heavy snow  Heavy precipitations  Wind > 20 kt
SIGMETs :     Misc.  Thunderstorms  Icing  Turbulence  Mountain Waves  Volcanic Ashes







- Airport Elevation : 459 ft
- IATA code : CER
- Download approach charts


LFRC - Cherbourg / Maupertus

CURRENT METAR :
  • 162000Z AUTO 26008KT 9999 SCT021 BKN026 BKN035 07/04 Q1006

EXPIRED METARs :
  • 161930Z AUTO 27010KT 9999 FEW017 BKN023 BKN031 07/04 Q1006
  • 161900Z AUTO 29008KT 260V330 9999 BKN018 BKN024 BKN036 08/05 Q1006
  • 161830Z AUTO 30010KT 9999 BKN019 OVC064 08/04 Q1006 BECMG 28015G25KT
  • 161800Z AUTO 30010KT 9999 SCT014 SCT021 BKN031 07/05 Q1006 TEMPO 3000 RADZ BKN005 BECMG 27015G25KT
  • 161730Z AUTO 30013KT 9999 BKN010 BKN022 BKN031 08/05 Q1005 BECMG 27015G25KT SCT020

TAF AMD TAF LFRC
Valid from the 16 at 17:00 until the 17 at 00:00 UTC


161758Z 1617/1624 28015G25KT 9999 BKN012
TEMPO 1617/1619 3000 RADZ BKN005
BECMG 1619/1621 SCT020
No reported NOTAMs for that airfield.



MET'MAP, your aeronautical weather chart ! - Copyright ORBIFLY December 2007 - Disclaimer

ORBIFLY MET'MAP TEAM :

Programming & Development : Alexandra Zaïnal
Concept & Development : Baudouin d'Aumeries
Co-Development & Prog : Marc-Olivier Méhu
Technical & hardware support : Manuel Goepfert

Contact : metmap@orbifly.com




SOURCES & CREDITS :

   NOAA